sensor_id;sensor_type;location;lat;lon;timestamp;P1;durP1;ratioP1;P2;durP2;ratioP2
77158;SDS011;66129;45.890;13.714;2023-02-04T00:00:16;80.40;;;37.67;;
77158;SDS011;66129;45.890;13.714;2023-02-04T00:02:44;69.10;;;35.65;;
77158;SDS011;66129;45.890;13.714;2023-02-04T00:05:10;63.17;;;31.92;;
77158;SDS011;66129;45.890;13.714;2023-02-04T00:07:37;68.50;;;32.13;;
77158;SDS011;66129;45.890;13.714;2023-02-04T00:10:03;62.05;;;32.53;;
77158;SDS011;66129;45.890;13.714;2023-02-04T00:12:30;62.83;;;29.08;;
77158;SDS011;66129;45.890;13.714;2023-02-04T00:14:56;66.80;;;30.85;;
77158;SDS011;66129;45.890;13.714;2023-02-04T00:17:21;73.53;;;32.90;;
77158;SDS011;66129;45.890;13.714;2023-02-04T00:19:47;57.47;;;30.50;;
77158;SDS011;66129;45.890;13.714;2023-02-04T00:22:12;61.85;;;29.63;;
77158;SDS011;66129;45.890;13.714;2023-02-04T00:24:37;67.45;;;33.05;;
77158;SDS011;66129;45.890;13.714;2023-02-04T00:27:03;83.50;;;38.50;;
77158;SDS011;66129;45.890;13.714;2023-02-04T00:29:30;75.40;;;34.83;;
77158;SDS011;66129;45.890;13.714;2023-02-04T00:31:55;72.95;;;36.22;;
77158;SDS011;66129;45.890;13.714;2023-02-04T00:34:21;77.88;;;36.38;;
77158;SDS011;66129;45.890;13.714;2023-02-04T00:36:47;77.40;;;34.20;;
77158;SDS011;66129;45.890;13.714;2023-02-04T00:39:13;61.92;;;29.60;;
77158;SDS011;66129;45.890;13.714;2023-02-04T00:41:39;59.42;;;29.10;;
77158;SDS011;66129;45.890;13.714;2023-02-04T00:44:04;67.97;;;30.88;;
77158;SDS011;66129;45.890;13.714;2023-02-04T00:46:30;61.72;;;29.77;;
77158;SDS011;66129;45.890;13.714;2023-02-04T00:48:55;65.93;;;30.60;;
77158;SDS011;66129;45.890;13.714;2023-02-04T00:51:21;59.53;;;29.08;;
77158;SDS011;66129;45.890;13.714;2023-02-04T00:53:46;53.03;;;27.80;;
77158;SDS011;66129;45.890;13.714;2023-02-04T00:56:12;60.35;;;28.55;;
77158;SDS011;66129;45.890;13.714;2023-02-04T00:58:37;56.20;;;26.65;;
77158;SDS011;66129;45.890;13.714;2023-02-04T01:01:03;60.78;;;28.10;;
77158;SDS011;66129;45.890;13.714;2023-02-04T01:03:28;55.83;;;27.80;;
77158;SDS011;66129;45.890;13.714;2023-02-04T01:05:54;54.08;;;27.08;;
77158;SDS011;66129;45.890;13.714;2023-02-04T01:08:19;62.80;;;31.13;;
77158;SDS011;66129;45.890;13.714;2023-02-04T01:10:45;57.78;;;30.40;;
77158;SDS011;66129;45.890;13.714;2023-02-04T01:13:10;55.30;;;27.75;;
77158;SDS011;66129;45.890;13.714;2023-02-04T01:15:36;59.95;;;28.60;;
77158;SDS011;66129;45.890;13.714;2023-02-04T01:18:01;74.45;;;32.28;;
77158;SDS011;66129;45.890;13.714;2023-02-04T01:20:27;68.72;;;30.88;;
77158;SDS011;66129;45.890;13.714;2023-02-04T01:22:53;61.50;;;30.85;;
77158;SDS011;66129;45.890;13.714;2023-02-04T01:25:18;69.13;;;31.70;;
77158;SDS011;66129;45.890;13.714;2023-02-04T01:27:44;65.57;;;29.38;;
77158;SDS011;66129;45.890;13.714;2023-02-04T01:30:10;68.00;;;34.00;;
77158;SDS011;66129;45.890;13.714;2023-02-04T01:32:36;76.90;;;32.20;;
77158;SDS011;66129;45.890;13.714;2023-02-04T01:35:02;69.57;;;32.15;;
77158;SDS011;66129;45.890;13.714;2023-02-04T01:37:28;72.45;;;31.98;;
77158;SDS011;66129;45.890;13.714;2023-02-04T01:39:53;64.28;;;31.30;;
77158;SDS011;66129;45.890;13.714;2023-02-04T01:42:19;62.88;;;28.27;;
77158;SDS011;66129;45.890;13.714;2023-02-04T01:44:44;64.07;;;29.13;;
77158;SDS011;66129;45.890;13.714;2023-02-04T01:47:10;63.90;;;30.70;;
77158;SDS011;66129;45.890;13.714;2023-02-04T01:49:36;76.05;;;31.17;;
77158;SDS011;66129;45.890;13.714;2023-02-04T01:52:02;63.28;;;31.17;;
77158;SDS011;66129;45.890;13.714;2023-02-04T01:54:28;66.93;;;29.70;;
77158;SDS011;66129;45.890;13.714;2023-02-04T01:56:54;57.15;;;29.35;;
77158;SDS011;66129;45.890;13.714;2023-02-04T01:59:20;58.10;;;28.73;;
77158;SDS011;66129;45.890;13.714;2023-02-04T02:01:46;58.78;;;27.95;;
77158;SDS011;66129;45.890;13.714;2023-02-04T02:04:14;55.03;;;26.27;;
77158;SDS011;66129;45.890;13.714;2023-02-04T02:06:48;58.83;;;28.48;;
77158;SDS011;66129;45.890;13.714;2023-02-04T02:09:17;64.95;;;29.83;;
77158;SDS011;66129;45.890;13.714;2023-02-04T02:11:43;65.93;;;29.52;;
77158;SDS011;66129;45.890;13.714;2023-02-04T02:14:09;54.35;;;27.27;;
77158;SDS011;66129;45.890;13.714;2023-02-04T02:16:35;60.17;;;28.52;;
77158;SDS011;66129;45.890;13.714;2023-02-04T02:19:01;54.97;;;28.00;;
77158;SDS011;66129;45.890;13.714;2023-02-04T02:21:34;61.00;;;27.15;;
77158;SDS011;66129;45.890;13.714;2023-02-04T02:24:22;58.53;;;24.35;;
77158;SDS011;66129;45.890;13.714;2023-02-04T02:26:56;60.85;;;29.27;;
77158;SDS011;66129;45.890;13.714;2023-02-04T02:29:25;60.30;;;26.77;;
77158;SDS011;66129;45.890;13.714;2023-02-04T02:31:52;60.88;;;27.73;;
77158;SDS011;66129;45.890;13.714;2023-02-04T02:34:21;55.47;;;29.63;;
77158;SDS011;66129;45.890;13.714;2023-02-04T02:36:47;72.07;;;33.30;;
77158;SDS011;66129;45.890;13.714;2023-02-04T02:39:13;79.68;;;32.20;;
77158;SDS011;66129;45.890;13.714;2023-02-04T02:41:39;56.55;;;27.50;;
77158;SDS011;66129;45.890;13.714;2023-02-04T02:44:04;58.58;;;29.17;;
77158;SDS011;66129;45.890;13.714;2023-02-04T02:46:30;63.05;;;27.38;;
77158;SDS011;66129;45.890;13.714;2023-02-04T02:48:56;68.68;;;27.90;;
77158;SDS011;66129;45.890;13.714;2023-02-04T02:51:22;63.22;;;29.90;;
77158;SDS011;66129;45.890;13.714;2023-02-04T02:53:48;54.70;;;26.35;;
77158;SDS011;66129;45.890;13.714;2023-02-04T02:56:13;55.20;;;26.35;;
77158;SDS011;66129;45.890;13.714;2023-02-04T02:58:39;59.38;;;27.80;;
77158;SDS011;66129;45.890;13.714;2023-02-04T03:01:06;56.80;;;26.77;;
77158;SDS011;66129;45.890;13.714;2023-02-04T03:03:38;52.38;;;26.17;;
77158;SDS011;66129;45.890;13.714;2023-02-04T03:06:14;61.70;;;29.30;;
77158;SDS011;66129;45.890;13.714;2023-02-04T03:11:10;59.00;;;24.92;;
77158;SDS011;66129;45.890;13.714;2023-02-04T03:13:36;55.65;;;25.95;;
77158;SDS011;66129;45.890;13.714;2023-02-04T03:16:02;66.05;;;29.23;;
77158;SDS011;66129;45.890;13.714;2023-02-04T03:18:28;79.43;;;32.60;;
77158;SDS011;66129;45.890;13.714;2023-02-04T03:20:55;56.40;;;27.23;;
77158;SDS011;66129;45.890;13.714;2023-02-04T03:23:23;70.28;;;30.45;;
77158;SDS011;66129;45.890;13.714;2023-02-04T03:25:49;77.97;;;31.10;;
77158;SDS011;66129;45.890;13.714;2023-02-04T03:28:15;70.63;;;30.25;;
77158;SDS011;66129;45.890;13.714;2023-02-04T03:30:41;60.92;;;28.45;;
77158;SDS011;66129;45.890;13.714;2023-02-04T03:33:06;68.15;;;29.52;;
77158;SDS011;66129;45.890;13.714;2023-02-04T03:35:32;61.05;;;28.40;;
77158;SDS011;66129;45.890;13.714;2023-02-04T03:37:57;53.42;;;26.48;;
77158;SDS011;66129;45.890;13.714;2023-02-04T03:40:23;52.40;;;26.98;;
77158;SDS011;66129;45.890;13.714;2023-02-04T03:42:48;57.90;;;27.10;;
77158;SDS011;66129;45.890;13.714;2023-02-04T03:45:14;55.70;;;25.15;;
77158;SDS011;66129;45.890;13.714;2023-02-04T03:47:39;54.83;;;25.95;;
77158;SDS011;66129;45.890;13.714;2023-02-04T03:50:05;57.05;;;24.95;;
77158;SDS011;66129;45.890;13.714;2023-02-04T03:52:30;50.45;;;23.52;;
77158;SDS011;66129;45.890;13.714;2023-02-04T03:54:56;58.08;;;27.45;;
77158;SDS011;66129;45.890;13.714;2023-02-04T03:57:21;60.75;;;26.50;;
77158;SDS011;66129;45.890;13.714;2023-02-04T03:59:47;51.08;;;24.73;;
77158;SDS011;66129;45.890;13.714;2023-02-04T04:02:12;52.42;;;25.05;;
77158;SDS011;66129;45.890;13.714;2023-02-04T04:04:38;59.22;;;26.08;;
77158;SDS011;66129;45.890;13.714;2023-02-04T04:07:03;60.03;;;26.35;;
77158;SDS011;66129;45.890;13.714;2023-02-04T04:09:29;49.38;;;24.48;;
77158;SDS011;66129;45.890;13.714;2023-02-04T04:11:54;55.95;;;25.42;;
77158;SDS011;66129;45.890;13.714;2023-02-04T04:14:20;59.70;;;26.77;;
77158;SDS011;66129;45.890;13.714;2023-02-04T04:16:45;57.50;;;24.70;;
77158;SDS011;66129;45.890;13.714;2023-02-04T04:19:11;57.20;;;24.98;;
77158;SDS011;66129;45.890;13.714;2023-02-04T04:21:36;56.53;;;27.55;;
77158;SDS011;66129;45.890;13.714;2023-02-04T04:24:02;57.58;;;24.35;;
77158;SDS011;66129;45.890;13.714;2023-02-04T04:26:27;54.38;;;25.75;;
77158;SDS011;66129;45.890;13.714;2023-02-04T04:28:53;54.20;;;24.85;;
77158;SDS011;66129;45.890;13.714;2023-02-04T04:31:18;67.85;;;27.83;;
77158;SDS011;66129;45.890;13.714;2023-02-04T04:33:44;51.38;;;25.23;;
77158;SDS011;66129;45.890;13.714;2023-02-04T04:36:09;53.60;;;24.23;;
77158;SDS011;66129;45.890;13.714;2023-02-04T04:38:35;51.05;;;24.65;;
77158;SDS011;66129;45.890;13.714;2023-02-04T04:41:00;50.47;;;24.50;;
77158;SDS011;66129;45.890;13.714;2023-02-04T04:43:26;52.75;;;25.15;;
77158;SDS011;66129;45.890;13.714;2023-02-04T04:45:51;47.38;;;23.95;;
77158;SDS011;66129;45.890;13.714;2023-02-04T04:48:17;55.05;;;24.95;;
77158;SDS011;66129;45.890;13.714;2023-02-04T04:50:42;59.92;;;26.23;;
77158;SDS011;66129;45.890;13.714;2023-02-04T04:53:08;44.95;;;20.45;;
77158;SDS011;66129;45.890;13.714;2023-02-04T04:55:38;54.67;;;25.85;;
77158;SDS011;66129;45.890;13.714;2023-02-04T04:58:05;49.92;;;24.23;;
77158;SDS011;66129;45.890;13.714;2023-02-04T05:00:31;46.55;;;22.60;;
77158;SDS011;66129;45.890;13.714;2023-02-04T05:02:57;58.72;;;26.95;;
77158;SDS011;66129;45.890;13.714;2023-02-04T05:05:23;52.53;;;23.33;;
77158;SDS011;66129;45.890;13.714;2023-02-04T05:07:48;41.72;;;21.13;;
77158;SDS011;66129;45.890;13.714;2023-02-04T05:10:14;43.42;;;20.20;;
77158;SDS011;66129;45.890;13.714;2023-02-04T05:12:40;50.38;;;21.13;;
77158;SDS011;66129;45.890;13.714;2023-02-04T05:15:05;44.33;;;21.38;;
77158;SDS011;66129;45.890;13.714;2023-02-04T05:17:31;51.45;;;21.20;;
77158;SDS011;66129;45.890;13.714;2023-02-04T05:19:56;51.22;;;21.90;;
77158;SDS011;66129;45.890;13.714;2023-02-04T05:22:22;43.35;;;21.17;;
77158;SDS011;66129;45.890;13.714;2023-02-04T05:24:47;43.00;;;21.50;;
77158;SDS011;66129;45.890;13.714;2023-02-04T05:27:13;56.40;;;24.05;;
77158;SDS011;66129;45.890;13.714;2023-02-04T05:29:38;62.25;;;26.08;;
77158;SDS011;66129;45.890;13.714;2023-02-04T05:32:04;50.03;;;23.15;;
77158;SDS011;66129;45.890;13.714;2023-02-04T05:34:29;44.55;;;21.58;;
77158;SDS011;66129;45.890;13.714;2023-02-04T05:36:55;44.28;;;20.33;;
77158;SDS011;66129;45.890;13.714;2023-02-04T05:39:20;40.70;;;20.88;;
77158;SDS011;66129;45.890;13.714;2023-02-04T05:41:46;43.35;;;20.33;;
77158;SDS011;66129;45.890;13.714;2023-02-04T05:44:11;68.32;;;27.52;;
77158;SDS011;66129;45.890;13.714;2023-02-04T05:46:37;44.15;;;21.60;;
77158;SDS011;66129;45.890;13.714;2023-02-04T05:49:03;52.70;;;22.90;;
77158;SDS011;66129;45.890;13.714;2023-02-04T05:51:29;109.18;;;33.47;;
77158;SDS011;66129;45.890;13.714;2023-02-04T05:53:54;79.10;;;27.92;;
77158;SDS011;66129;45.890;13.714;2023-02-04T05:56:20;65.75;;;25.80;;
77158;SDS011;66129;45.890;13.714;2023-02-04T05:58:45;56.63;;;25.48;;
77158;SDS011;66129;45.890;13.714;2023-02-04T06:01:11;51.25;;;24.42;;
77158;SDS011;66129;45.890;13.714;2023-02-04T06:03:36;135.10;;;74.13;;
77158;SDS011;66129;45.890;13.714;2023-02-04T06:06:02;100.40;;;51.65;;
77158;SDS011;66129;45.890;13.714;2023-02-04T06:08:27;50.60;;;24.50;;
77158;SDS011;66129;45.890;13.714;2023-02-04T06:10:53;70.13;;;32.78;;
77158;SDS011;66129;45.890;13.714;2023-02-04T06:13:19;107.28;;;54.65;;
77158;SDS011;66129;45.890;13.714;2023-02-04T06:15:44;88.32;;;44.40;;
77158;SDS011;66129;45.890;13.714;2023-02-04T06:18:10;62.10;;;30.42;;
77158;SDS011;66129;45.890;13.714;2023-02-04T06:20:35;66.20;;;35.35;;
77158;SDS011;66129;45.890;13.714;2023-02-04T06:23:01;52.80;;;24.50;;
77158;SDS011;66129;45.890;13.714;2023-02-04T06:25:27;47.65;;;22.83;;
77158;SDS011;66129;45.890;13.714;2023-02-04T06:27:53;45.22;;;24.50;;
77158;SDS011;66129;45.890;13.714;2023-02-04T06:30:18;50.80;;;24.73;;
77158;SDS011;66129;45.890;13.714;2023-02-04T06:32:44;53.65;;;24.70;;
77158;SDS011;66129;45.890;13.714;2023-02-04T06:35:09;47.58;;;23.92;;
77158;SDS011;66129;45.890;13.714;2023-02-04T06:37:37;66.22;;;31.20;;
77158;SDS011;66129;45.890;13.714;2023-02-04T06:40:03;74.68;;;36.28;;
77158;SDS011;66129;45.890;13.714;2023-02-04T06:42:29;46.78;;;21.77;;
77158;SDS011;66129;45.890;13.714;2023-02-04T06:44:54;42.53;;;21.42;;
77158;SDS011;66129;45.890;13.714;2023-02-04T06:47:26;46.05;;;23.02;;
77158;SDS011;66129;45.890;13.714;2023-02-04T06:49:52;48.33;;;22.30;;
77158;SDS011;66129;45.890;13.714;2023-02-04T06:52:17;44.03;;;22.00;;
77158;SDS011;66129;45.890;13.714;2023-02-04T06:54:43;39.40;;;20.50;;
77158;SDS011;66129;45.890;13.714;2023-02-04T06:57:09;36.85;;;21.08;;
77158;SDS011;66129;45.890;13.714;2023-02-04T06:59:35;49.72;;;24.30;;
77158;SDS011;66129;45.890;13.714;2023-02-04T07:02:02;45.47;;;25.05;;
77158;SDS011;66129;45.890;13.714;2023-02-04T07:04:29;116.13;;;47.97;;
77158;SDS011;66129;45.890;13.714;2023-02-04T07:06:55;57.75;;;27.48;;
77158;SDS011;66129;45.890;13.714;2023-02-04T07:09:21;53.60;;;26.90;;
77158;SDS011;66129;45.890;13.714;2023-02-04T07:11:47;57.47;;;28.90;;
77158;SDS011;66129;45.890;13.714;2023-02-04T07:14:12;55.42;;;29.90;;
77158;SDS011;66129;45.890;13.714;2023-02-04T07:16:38;60.70;;;31.08;;
77158;SDS011;66129;45.890;13.714;2023-02-04T07:19:03;58.38;;;27.60;;
77158;SDS011;66129;45.890;13.714;2023-02-04T07:21:29;57.35;;;25.52;;
77158;SDS011;66129;45.890;13.714;2023-02-04T07:23:55;64.70;;;31.48;;
77158;SDS011;66129;45.890;13.714;2023-02-04T07:26:20;62.47;;;31.23;;
77158;SDS011;66129;45.890;13.714;2023-02-04T07:28:46;58.15;;;32.22;;
77158;SDS011;66129;45.890;13.714;2023-02-04T07:31:12;70.75;;;36.88;;
77158;SDS011;66129;45.890;13.714;2023-02-04T07:33:38;97.75;;;48.50;;
77158;SDS011;66129;45.890;13.714;2023-02-04T07:36:03;60.80;;;31.55;;
77158;SDS011;66129;45.890;13.714;2023-02-04T07:38:29;44.50;;;22.10;;
77158;SDS011;66129;45.890;13.714;2023-02-04T07:40:55;48.08;;;24.10;;
77158;SDS011;66129;45.890;13.714;2023-02-04T07:43:20;58.80;;;32.15;;
77158;SDS011;66129;45.890;13.714;2023-02-04T07:45:46;49.83;;;22.35;;
77158;SDS011;66129;45.890;13.714;2023-02-04T07:48:11;58.53;;;27.13;;
77158;SDS011;66129;45.890;13.714;2023-02-04T07:50:37;55.60;;;27.73;;
77158;SDS011;66129;45.890;13.714;2023-02-04T07:53:02;50.70;;;22.83;;
77158;SDS011;66129;45.890;13.714;2023-02-04T07:55:28;40.15;;;21.58;;
77158;SDS011;66129;45.890;13.714;2023-02-04T07:57:54;32.92;;;19.65;;
77158;SDS011;66129;45.890;13.714;2023-02-04T08:00:19;45.55;;;24.83;;
77158;SDS011;66129;45.890;13.714;2023-02-04T08:02:45;40.70;;;23.60;;
77158;SDS011;66129;45.890;13.714;2023-02-04T08:05:11;27.73;;;14.80;;
77158;SDS011;66129;45.890;13.714;2023-02-04T08:07:37;27.77;;;15.73;;
77158;SDS011;66129;45.890;13.714;2023-02-04T08:10:03;31.08;;;16.10;;
77158;SDS011;66129;45.890;13.714;2023-02-04T08:12:29;29.40;;;15.65;;
77158;SDS011;66129;45.890;13.714;2023-02-04T08:14:55;21.95;;;13.25;;
77158;SDS011;66129;45.890;13.714;2023-02-04T08:17:20;28.08;;;17.88;;
77158;SDS011;66129;45.890;13.714;2023-02-04T08:19:46;27.63;;;17.15;;
77158;SDS011;66129;45.890;13.714;2023-02-04T08:22:11;26.48;;;12.60;;
77158;SDS011;66129;45.890;13.714;2023-02-04T08:24:37;19.00;;;12.13;;
77158;SDS011;66129;45.890;13.714;2023-02-04T08:27:02;17.13;;;13.35;;
77158;SDS011;66129;45.890;13.714;2023-02-04T08:29:28;43.17;;;23.85;;
77158;SDS011;66129;45.890;13.714;2023-02-04T08:31:53;24.10;;;14.25;;
77158;SDS011;66129;45.890;13.714;2023-02-04T08:34:19;23.40;;;14.27;;
77158;SDS011;66129;45.890;13.714;2023-02-04T08:36:45;22.20;;;13.20;;
77158;SDS011;66129;45.890;13.714;2023-02-04T08:39:10;34.13;;;17.85;;
77158;SDS011;66129;45.890;13.714;2023-02-04T08:41:36;46.55;;;20.30;;
77158;SDS011;66129;45.890;13.714;2023-02-04T08:44:02;20.60;;;12.02;;
77158;SDS011;66129;45.890;13.714;2023-02-04T08:46:28;17.55;;;10.00;;
77158;SDS011;66129;45.890;13.714;2023-02-04T08:48:53;22.90;;;11.98;;
77158;SDS011;66129;45.890;13.714;2023-02-04T08:51:19;37.60;;;17.20;;
77158;SDS011;66129;45.890;13.714;2023-02-04T08:53:44;26.42;;;13.00;;
77158;SDS011;66129;45.890;13.714;2023-02-04T08:56:10;18.08;;;9.90;;
77158;SDS011;66129;45.890;13.714;2023-02-04T08:58:40;21.88;;;11.95;;
77158;SDS011;66129;45.890;13.714;2023-02-04T09:01:06;21.23;;;10.88;;
77158;SDS011;66129;45.890;13.714;2023-02-04T09:03:32;14.55;;;9.32;;
77158;SDS011;66129;45.890;13.714;2023-02-04T09:05:57;20.20;;;11.70;;
77158;SDS011;66129;45.890;13.714;2023-02-04T09:08:23;14.75;;;9.15;;
77158;SDS011;66129;45.890;13.714;2023-02-04T09:10:48;16.70;;;11.23;;
77158;SDS011;66129;45.890;13.714;2023-02-04T09:13:14;15.75;;;9.63;;
77158;SDS011;66129;45.890;13.714;2023-02-04T09:15:39;19.27;;;10.27;;
77158;SDS011;66129;45.890;13.714;2023-02-04T09:18:05;25.77;;;13.55;;
77158;SDS011;66129;45.890;13.714;2023-02-04T09:20:38;13.85;;;9.65;;
77158;SDS011;66129;45.890;13.714;2023-02-04T09:23:04;12.85;;;9.10;;
77158;SDS011;66129;45.890;13.714;2023-02-04T09:25:34;16.60;;;10.43;;
77158;SDS011;66129;45.890;13.714;2023-02-04T09:28:00;21.65;;;11.68;;
77158;SDS011;66129;45.890;13.714;2023-02-04T09:30:25;18.83;;;10.48;;
77158;SDS011;66129;45.890;13.714;2023-02-04T09:32:52;19.30;;;11.95;;
77158;SDS011;66129;45.890;13.714;2023-02-04T09:35:17;18.33;;;10.60;;
77158;SDS011;66129;45.890;13.714;2023-02-04T09:37:43;15.45;;;11.15;;
77158;SDS011;66129;45.890;13.714;2023-02-04T09:40:15;19.42;;;11.15;;
77158;SDS011;66129;45.890;13.714;2023-02-04T09:42:43;24.63;;;16.08;;
77158;SDS011;66129;45.890;13.714;2023-02-04T09:45:14;20.17;;;12.80;;
77158;SDS011;66129;45.890;13.714;2023-02-04T09:47:44;29.58;;;18.63;;
77158;SDS011;66129;45.890;13.714;2023-02-04T09:50:14;16.88;;;9.85;;
77158;SDS011;66129;45.890;13.714;2023-02-04T09:52:41;13.57;;;9.05;;
77158;SDS011;66129;45.890;13.714;2023-02-04T09:55:14;15.70;;;8.85;;
77158;SDS011;66129;45.890;13.714;2023-02-04T09:57:41;28.95;;;17.25;;
77158;SDS011;66129;45.890;13.714;2023-02-04T10:02:42;10.85;;;7.38;;
77158;SDS011;66129;45.890;13.714;2023-02-04T10:05:11;9.82;;;5.30;;
77158;SDS011;66129;45.890;13.714;2023-02-04T10:07:39;7.60;;;3.97;;
77158;SDS011;66129;45.890;13.714;2023-02-04T10:10:04;8.57;;;5.18;;
77158;SDS011;66129;45.890;13.714;2023-02-04T10:12:30;5.05;;;3.22;;
77158;SDS011;66129;45.890;13.714;2023-02-04T10:14:56;15.65;;;9.77;;
77158;SDS011;66129;45.890;13.714;2023-02-04T10:17:24;17.25;;;9.75;;
77158;SDS011;66129;45.890;13.714;2023-02-04T10:19:50;18.30;;;10.35;;
77158;SDS011;66129;45.890;13.714;2023-02-04T10:22:17;12.43;;;7.57;;
77158;SDS011;66129;45.890;13.714;2023-02-04T10:24:45;12.60;;;8.90;;
77158;SDS011;66129;45.890;13.714;2023-02-04T10:27:11;17.50;;;8.05;;
77158;SDS011;66129;45.890;13.714;2023-02-04T10:29:40;13.73;;;8.07;;
77158;SDS011;66129;45.890;13.714;2023-02-04T10:32:23;13.13;;;8.77;;
77158;SDS011;66129;45.890;13.714;2023-02-04T10:34:55;45.60;;;27.50;;
77158;SDS011;66129;45.890;13.714;2023-02-04T10:37:22;22.23;;;13.65;;
77158;SDS011;66129;45.890;13.714;2023-02-04T10:39:48;11.93;;;8.70;;
77158;SDS011;66129;45.890;13.714;2023-02-04T10:42:27;13.13;;;8.57;;
77158;SDS011;66129;45.890;13.714;2023-02-04T10:44:53;13.48;;;8.15;;
77158;SDS011;66129;45.890;13.714;2023-02-04T10:50:29;13.27;;;8.82;;
77158;SDS011;66129;45.890;13.714;2023-02-04T10:52:42;15.05;;;9.38;;
77158;SDS011;66129;45.890;13.714;2023-02-04T10:55:14;17.55;;;12.05;;
77158;SDS011;66129;45.890;13.714;2023-02-04T10:57:43;22.63;;;13.80;;
77158;SDS011;66129;45.890;13.714;2023-02-04T11:00:14;22.90;;;13.07;;
77158;SDS011;66129;45.890;13.714;2023-02-04T11:02:53;42.60;;;21.98;;
77158;SDS011;66129;45.890;13.714;2023-02-04T11:05:23;17.40;;;10.52;;
77158;SDS011;66129;45.890;13.714;2023-02-04T11:07:54;13.82;;;8.90;;
77158;SDS011;66129;45.890;13.714;2023-02-04T11:10:20;17.02;;;9.60;;
77158;SDS011;66129;45.890;13.714;2023-02-04T11:15:37;24.27;;;14.10;;
77158;SDS011;66129;45.890;13.714;2023-02-04T11:21:13;21.67;;;11.55;;
77158;SDS011;66129;45.890;13.714;2023-02-04T11:23:47;20.50;;;11.95;;
77158;SDS011;66129;45.890;13.714;2023-02-04T11:26:14;23.95;;;13.50;;
77158;SDS011;66129;45.890;13.714;2023-02-04T11:34:02;24.30;;;15.80;;
77158;SDS011;66129;45.890;13.714;2023-02-04T11:36:34;22.15;;;12.25;;
77158;SDS011;66129;45.890;13.714;2023-02-04T11:39:21;16.75;;;10.98;;
77158;SDS011;66129;45.890;13.714;2023-02-04T11:41:50;23.02;;;13.05;;
77158;SDS011;66129;45.890;13.714;2023-02-04T11:44:16;22.52;;;12.25;;
77158;SDS011;66129;45.890;13.714;2023-02-04T11:46:48;16.67;;;9.30;;
77158;SDS011;66129;45.890;13.714;2023-02-04T11:49:17;17.27;;;9.95;;
77158;SDS011;66129;45.890;13.714;2023-02-04T11:51:44;18.55;;;12.38;;
77158;SDS011;66129;45.890;13.714;2023-02-04T11:54:14;18.48;;;10.02;;
77158;SDS011;66129;45.890;13.714;2023-02-04T11:56:43;31.58;;;17.77;;
77158;SDS011;66129;45.890;13.714;2023-02-04T11:59:10;155.18;;;79.45;;
77158;SDS011;66129;45.890;13.714;2023-02-04T12:01:36;16.63;;;9.73;;
77158;SDS011;66129;45.890;13.714;2023-02-04T12:04:03;30.92;;;16.98;;
77158;SDS011;66129;45.890;13.714;2023-02-04T12:06:32;16.85;;;11.23;;
77158;SDS011;66129;45.890;13.714;2023-02-04T12:11:50;53.83;;;21.98;;
77158;SDS011;66129;45.890;13.714;2023-02-04T12:14:18;16.58;;;10.60;;
77158;SDS011;66129;45.890;13.714;2023-02-04T12:16:45;16.58;;;10.63;;
77158;SDS011;66129;45.890;13.714;2023-02-04T12:19:12;23.10;;;14.77;;
77158;SDS011;66129;45.890;13.714;2023-02-04T12:21:39;18.65;;;11.55;;
77158;SDS011;66129;45.890;13.714;2023-02-04T12:24:04;20.65;;;12.48;;
77158;SDS011;66129;45.890;13.714;2023-02-04T12:26:30;19.67;;;12.82;;
77158;SDS011;66129;45.890;13.714;2023-02-04T12:28:56;18.90;;;12.25;;
77158;SDS011;66129;45.890;13.714;2023-02-04T12:31:24;20.98;;;11.68;;
77158;SDS011;66129;45.890;13.714;2023-02-04T12:33:49;23.88;;;12.90;;
77158;SDS011;66129;45.890;13.714;2023-02-04T12:36:15;18.80;;;12.50;;
77158;SDS011;66129;45.890;13.714;2023-02-04T12:38:40;25.40;;;13.68;;
77158;SDS011;66129;45.890;13.714;2023-02-04T12:41:06;21.88;;;14.45;;
77158;SDS011;66129;45.890;13.714;2023-02-04T12:43:31;23.75;;;14.57;;
77158;SDS011;66129;45.890;13.714;2023-02-04T12:45:57;22.33;;;14.60;;
77158;SDS011;66129;45.890;13.714;2023-02-04T12:48:22;19.38;;;14.73;;
77158;SDS011;66129;45.890;13.714;2023-02-04T12:50:48;22.67;;;13.52;;
77158;SDS011;66129;45.890;13.714;2023-02-04T12:53:13;29.27;;;14.40;;
77158;SDS011;66129;45.890;13.714;2023-02-04T12:55:38;20.80;;;13.25;;
77158;SDS011;66129;45.890;13.714;2023-02-04T12:58:04;12.48;;;7.70;;
77158;SDS011;66129;45.890;13.714;2023-02-04T13:00:29;4.47;;;1.50;;
77158;SDS011;66129;45.890;13.714;2023-02-04T13:02:55;4.68;;;1.90;;
77158;SDS011;66129;45.890;13.714;2023-02-04T13:05:23;2.15;;;1.35;;
77158;SDS011;66129;45.890;13.714;2023-02-04T13:07:49;2.10;;;1.00;;
77158;SDS011;66129;45.890;13.714;2023-02-04T13:10:15;2.00;;;1.20;;
77158;SDS011;66129;45.890;13.714;2023-02-04T13:12:42;8.88;;;3.53;;
77158;SDS011;66129;45.890;13.714;2023-02-04T13:15:08;5.38;;;3.53;;
77158;SDS011;66129;45.890;13.714;2023-02-04T13:17:34;2.83;;;1.27;;
77158;SDS011;66129;45.890;13.714;2023-02-04T13:19:59;2.95;;;1.10;;
77158;SDS011;66129;45.890;13.714;2023-02-04T13:22:25;2.33;;;1.20;;
77158;SDS011;66129;45.890;13.714;2023-02-04T13:24:51;3.75;;;1.40;;
77158;SDS011;66129;45.890;13.714;2023-02-04T13:27:17;2.67;;;1.05;;
77158;SDS011;66129;45.890;13.714;2023-02-04T13:29:42;2.90;;;1.45;;
77158;SDS011;66129;45.890;13.714;2023-02-04T13:32:09;3.55;;;0.93;;
77158;SDS011;66129;45.890;13.714;2023-02-04T13:34:35;1.25;;;0.60;;
77158;SDS011;66129;45.890;13.714;2023-02-04T13:37:01;0.60;;;0.57;;
77158;SDS011;66129;45.890;13.714;2023-02-04T13:39:26;0.85;;;0.50;;
77158;SDS011;66129;45.890;13.714;2023-02-04T13:41:52;1.52;;;0.90;;
77158;SDS011;66129;45.890;13.714;2023-02-04T13:44:17;3.13;;;0.85;;
77158;SDS011;66129;45.890;13.714;2023-02-04T13:46:43;1.48;;;0.73;;
77158;SDS011;66129;45.890;13.714;2023-02-04T13:49:09;2.70;;;1.02;;
77158;SDS011;66129;45.890;13.714;2023-02-04T13:51:34;1.88;;;0.98;;
77158;SDS011;66129;45.890;13.714;2023-02-04T13:53:59;1.95;;;1.20;;
77158;SDS011;66129;45.890;13.714;2023-02-04T13:56:25;2.83;;;1.33;;
77158;SDS011;66129;45.890;13.714;2023-02-04T13:58:51;2.20;;;1.27;;
77158;SDS011;66129;45.890;13.714;2023-02-04T14:01:17;2.13;;;1.10;;
77158;SDS011;66129;45.890;13.714;2023-02-04T14:03:43;3.30;;;1.60;;
77158;SDS011;66129;45.890;13.714;2023-02-04T14:06:09;2.03;;;1.20;;
77158;SDS011;66129;45.890;13.714;2023-02-04T14:08:35;3.65;;;1.80;;
77158;SDS011;66129;45.890;13.714;2023-02-04T14:11:00;13.50;;;6.78;;
77158;SDS011;66129;45.890;13.714;2023-02-04T14:13:26;14.23;;;5.97;;
77158;SDS011;66129;45.890;13.714;2023-02-04T14:15:52;13.95;;;7.00;;
77158;SDS011;66129;45.890;13.714;2023-02-04T14:18:17;9.68;;;4.30;;
77158;SDS011;66129;45.890;13.714;2023-02-04T14:20:43;16.55;;;7.22;;
77158;SDS011;66129;45.890;13.714;2023-02-04T14:23:09;5.43;;;2.95;;
77158;SDS011;66129;45.890;13.714;2023-02-04T14:25:36;3.53;;;2.03;;
77158;SDS011;66129;45.890;13.714;2023-02-04T14:28:02;5.18;;;2.38;;
77158;SDS011;66129;45.890;13.714;2023-02-04T14:30:28;2.00;;;0.73;;